WZZ1JR EPKK-EETN
Flight info
| Callsign | WZZ1JR |
|---|---|
| Flight time | 1h 32m |
| Altitude | 35000 |
| Route | POBOK M985 KOTEK DCT KURAV DCT BULEP DCT UNPEG DCT BOKSU DCT GUNTA M857 SOKVA DCT ANAMA DCT KEMET |
| Aircraft | A21N/M-SDE1E2E3FGIJ1J4RWXY/LB1 |
Departure
| Time | 2026-05-07 12:36 |
|---|---|
| Airport | Kraków John Paul II International Airport (EPKK) |
Arrival
| Time | 2026-05-07 14:08 |
|---|---|
| Airport | Lennart Meri Tallinn Airport (EETN) |
| Time | Latitude | Longitude | Altitude | Speed | Heading |
|---|---|---|---|---|---|
| 2026-05-07 12:05 | 50.07416 | 19.80447 | 801 ft | 0 kts | 107° |
| 2026-05-07 12:27 | 50.07419 | 19.80432 | 801 ft | 2 kts | 107° |
| 2026-05-07 12:28 | 50.07423 | 19.80409 | 801 ft | 2 kts | 110° |
| 2026-05-07 12:28 | 50.07429 | 19.80388 | 801 ft | 2 kts | 122° |
| 2026-05-07 12:28 | 50.07437 | 19.80372 | 801 ft | 0 kts | 121° |
| 2026-05-07 12:28 | 50.07442 | 19.80355 | 801 ft | 2 kts | 105° |
| 2026-05-07 12:29 | 50.07444 | 19.80332 | 801 ft | 2 kts | 90° |
| 2026-05-07 12:29 | 50.07444 | 19.80317 | 801 ft | 0 kts | 80° |
| 2026-05-07 12:29 | 50.07442 | 19.80308 | 801 ft | 0 kts | 78° |
| 2026-05-07 12:31 | 50.07443 | 19.80316 | 801 ft | 2 kts | 77° |
| 2026-05-07 12:31 | 50.07467 | 19.80367 | 801 ft | 8 kts | 30° |
| 2026-05-07 12:32 | 50.07523 | 19.80398 | 802 ft | 9 kts | 18° |
| 2026-05-07 12:32 | 50.07592 | 19.80415 | 801 ft | 10 kts | 352° |
| 2026-05-07 12:32 | 50.07668 | 19.80391 | 802 ft | 11 kts | 348° |
| 2026-05-07 12:32 | 50.07743 | 19.80365 | 802 ft | 11 kts | 347° |
| 2026-05-07 12:33 | 50.07902 | 19.80309 | 802 ft | 11 kts | 348° |
| 2026-05-07 12:33 | 50.07975 | 19.80286 | 802 ft | 9 kts | 348° |
| 2026-05-07 12:33 | 50.08003 | 19.80276 | 802 ft | 2 kts | 347° |
| 2026-05-07 12:34 | 50.08017 | 19.80264 | 802 ft | 1 kts | 293° |
| 2026-05-07 12:34 | 50.08016 | 19.80230 | 802 ft | 4 kts | 263° |
| 2026-05-07 12:34 | 50.08012 | 19.80202 | 802 ft | 0 kts | 257° |
| 2026-05-07 12:35 | 50.07996 | 19.80089 | 802 ft | 39 kts | 257° |
| 2026-05-07 12:35 | 50.07888 | 19.79311 | 802 ft | 106 kts | 257° |
| 2026-05-07 12:35 | 50.07688 | 19.77872 | 803 ft | 162 kts | 258° |
| 2026-05-07 12:35 | 50.07592 | 19.77178 | 844 ft | 175 kts | 258° |
| 2026-05-07 12:36 | 50.07458 | 19.76207 | 1075 ft | 179 kts | 258° |
| 2026-05-07 12:36 | 50.07259 | 19.74793 | 1489 ft | 183 kts | 257° |
| 2026-05-07 12:37 | 50.06985 | 19.72870 | 2162 ft | 186 kts | 258° |
| 2026-05-07 12:37 | 50.06704 | 19.70922 | 2854 ft | 186 kts | 257° |
| 2026-05-07 12:37 | 50.06392 | 19.68931 | 3331 ft | 196 kts | 258° |
| 2026-05-07 12:37 | 50.06226 | 19.67417 | 3600 ft | 206 kts | 270° |
| 2026-05-07 12:38 | 50.06593 | 19.65331 | 3928 ft | 222 kts | 296° |
| 2026-05-07 12:38 | 50.07647 | 19.63376 | 4157 ft | 250 kts | 324° |
| 2026-05-07 12:39 | 50.09338 | 19.62398 | 4542 ft | 272 kts | 347° |
| 2026-05-07 12:39 | 50.11204 | 19.61842 | 5250 ft | 276 kts | 347° |
| 2026-05-07 12:39 | 50.13071 | 19.61449 | 6075 ft | 278 kts | 0° |
| 2026-05-07 12:39 | 50.14930 | 19.62314 | 6755 ft | 287 kts | 31° |
| 2026-05-07 12:40 | 50.16481 | 19.64293 | 7477 ft | 291 kts | 41° |
| 2026-05-07 12:40 | 50.17980 | 19.66428 | 8147 ft | 295 kts | 41° |
| 2026-05-07 12:40 | 50.19495 | 19.68555 | 8815 ft | 299 kts | 41° |
| 2026-05-07 12:40 | 50.21070 | 19.70726 | 9487 ft | 302 kts | 41° |
| 2026-05-07 12:41 | 50.22634 | 19.72866 | 10119 ft | 305 kts | 41° |
| 2026-05-07 12:41 | 50.24269 | 19.75093 | 10555 ft | 317 kts | 41° |
| 2026-05-07 12:41 | 50.25958 | 19.77394 | 10851 ft | 333 kts | 41° |
| 2026-05-07 12:41 | 50.27734 | 19.79807 | 11301 ft | 342 kts | 39° |
| 2026-05-07 12:42 | 50.29682 | 19.81969 | 11901 ft | 345 kts | 32° |
| 2026-05-07 12:42 | 50.31727 | 19.83931 | 12540 ft | 347 kts | 31° |
| 2026-05-07 12:42 | 50.33788 | 19.85872 | 13107 ft | 351 kts | 31° |
| 2026-05-07 12:42 | 50.35889 | 19.87874 | 13647 ft | 356 kts | 31° |
| 2026-05-07 12:43 | 50.38005 | 19.89918 | 14215 ft | 359 kts | 32° |
| 2026-05-07 12:43 | 50.40142 | 19.92005 | 14751 ft | 363 kts | 32° |
| 2026-05-07 12:43 | 50.42288 | 19.94116 | 15284 ft | 367 kts | 32° |
| 2026-05-07 12:43 | 50.44442 | 19.96245 | 15786 ft | 370 kts | 32° |
| 2026-05-07 12:44 | 50.46624 | 19.98407 | 16293 ft | 374 kts | 32° |
| 2026-05-07 12:44 | 50.48834 | 20.00602 | 16761 ft | 378 kts | 32° |
| 2026-05-07 12:44 | 50.51044 | 20.02801 | 17250 ft | 382 kts | 32° |
| 2026-05-07 12:44 | 50.53290 | 20.05038 | 17745 ft | 384 kts | 32° |
| 2026-05-07 12:45 | 50.55564 | 20.07308 | 18210 ft | 387 kts | 32° |
| 2026-05-07 12:45 | 50.57856 | 20.09596 | 18700 ft | 390 kts | 32° |
| 2026-05-07 12:45 | 50.60129 | 20.11870 | 19152 ft | 393 kts | 32° |
| 2026-05-07 12:45 | 50.62448 | 20.14192 | 19596 ft | 397 kts | 32° |
| 2026-05-07 12:46 | 50.64762 | 20.16512 | 20023 ft | 400 kts | 32° |
| 2026-05-07 12:46 | 50.67128 | 20.18887 | 20444 ft | 403 kts | 32° |
| 2026-05-07 12:46 | 50.69492 | 20.21263 | 20859 ft | 406 kts | 32° |
| 2026-05-07 12:46 | 50.71878 | 20.23663 | 21298 ft | 408 kts | 32° |
| 2026-05-07 12:47 | 50.74258 | 20.26060 | 21676 ft | 412 kts | 32° |
| 2026-05-07 12:47 | 50.76684 | 20.28508 | 22067 ft | 415 kts | 32° |
| 2026-05-07 12:47 | 50.79102 | 20.30948 | 22449 ft | 418 kts | 32° |
| 2026-05-07 12:47 | 50.81570 | 20.33442 | 22851 ft | 420 kts | 32° |
| 2026-05-07 12:48 | 50.84039 | 20.35942 | 23231 ft | 423 kts | 32° |
| 2026-05-07 12:48 | 50.86512 | 20.38449 | 23590 ft | 426 kts | 32° |
| 2026-05-07 12:48 | 50.89008 | 20.40982 | 23945 ft | 429 kts | 32° |
| 2026-05-07 12:48 | 50.91526 | 20.43538 | 24297 ft | 432 kts | 32° |
| 2026-05-07 12:49 | 50.94048 | 20.46103 | 24646 ft | 435 kts | 32° |
| 2026-05-07 12:49 | 50.96590 | 20.48691 | 24990 ft | 438 kts | 32° |
| 2026-05-07 12:49 | 50.99148 | 20.51301 | 25316 ft | 440 kts | 32° |
| 2026-05-07 12:49 | 51.01728 | 20.53937 | 25658 ft | 443 kts | 32° |
| 2026-05-07 12:50 | 51.04308 | 20.56577 | 25977 ft | 445 kts | 32° |
| 2026-05-07 12:50 | 51.06914 | 20.59249 | 26310 ft | 448 kts | 32° |
| 2026-05-07 12:50 | 51.09532 | 20.61933 | 26636 ft | 450 kts | 32° |
| 2026-05-07 12:50 | 51.12174 | 20.64646 | 26935 ft | 452 kts | 33° |
| 2026-05-07 12:51 | 51.14838 | 20.67385 | 27229 ft | 454 kts | 33° |
| 2026-05-07 12:51 | 51.17479 | 20.70107 | 27509 ft | 457 kts | 33° |
| 2026-05-07 12:51 | 51.20194 | 20.72907 | 27780 ft | 459 kts | 33° |
| 2026-05-07 12:51 | 51.22862 | 20.75665 | 28063 ft | 462 kts | 33° |
| 2026-05-07 12:52 | 51.25560 | 20.78457 | 28332 ft | 464 kts | 33° |
| 2026-05-07 12:52 | 51.28268 | 20.81261 | 28588 ft | 466 kts | 33° |
| 2026-05-07 12:52 | 51.30986 | 20.84078 | 28844 ft | 469 kts | 33° |
| 2026-05-07 12:52 | 51.33725 | 20.86925 | 29131 ft | 470 kts | 33° |
| 2026-05-07 12:53 | 51.36461 | 20.89771 | 29404 ft | 472 kts | 33° |
| 2026-05-07 12:53 | 51.39213 | 20.92638 | 29631 ft | 475 kts | 33° |
| 2026-05-07 12:53 | 51.41984 | 20.95530 | 29872 ft | 477 kts | 33° |
| 2026-05-07 12:53 | 51.44763 | 20.98434 | 30127 ft | 479 kts | 33° |
| 2026-05-07 12:54 | 51.47543 | 21.01345 | 30484 ft | 479 kts | 33° |
| 2026-05-07 12:54 | 51.50317 | 21.04253 | 30853 ft | 478 kts | 33° |
| 2026-05-07 12:54 | 51.53070 | 21.07139 | 31131 ft | 479 kts | 33° |
| 2026-05-07 12:54 | 51.55867 | 21.10080 | 31395 ft | 480 kts | 33° |
| 2026-05-07 12:55 | 51.58658 | 21.13019 | 31661 ft | 481 kts | 33° |
| 2026-05-07 12:55 | 51.61437 | 21.15949 | 31916 ft | 482 kts | 33° |
| 2026-05-07 12:55 | 51.64265 | 21.18936 | 32170 ft | 484 kts | 33° |
| 2026-05-07 12:55 | 51.67034 | 21.21862 | 32405 ft | 485 kts | 33° |
| 2026-05-07 12:56 | 51.69845 | 21.24836 | 32654 ft | 486 kts | 33° |
| 2026-05-07 12:56 | 51.72696 | 21.27860 | 32916 ft | 486 kts | 33° |
| 2026-05-07 12:56 | 51.75504 | 21.30843 | 33221 ft | 485 kts | 33° |
| 2026-05-07 12:56 | 51.78310 | 21.33827 | 33588 ft | 483 kts | 32° |
| 2026-05-07 12:57 | 51.81114 | 21.36744 | 33937 ft | 481 kts | 28° |
| 2026-05-07 12:57 | 51.84095 | 21.39039 | 34256 ft | 478 kts | 21° |
| 2026-05-07 12:57 | 51.87172 | 21.41010 | 34603 ft | 476 kts | 19° |
| 2026-05-07 12:57 | 51.90245 | 21.42901 | 34905 ft | 474 kts | 19° |
| 2026-05-07 12:58 | 51.93306 | 21.44790 | 35150 ft | 473 kts | 19° |
| 2026-05-07 12:58 | 51.96372 | 21.46707 | 35367 ft | 473 kts | 19° |
| 2026-05-07 12:58 | 51.99438 | 21.48645 | 35576 ft | 472 kts | 19° |
| 2026-05-07 12:58 | 52.02490 | 21.50588 | 35771 ft | 472 kts | 19° |
| 2026-05-07 12:59 | 52.05541 | 21.52544 | 35967 ft | 472 kts | 20° |
| 2026-05-07 12:59 | 52.08577 | 21.54496 | 36159 ft | 471 kts | 19° |
| 2026-05-07 12:59 | 52.11590 | 21.56439 | 36345 ft | 471 kts | 19° |
| 2026-05-07 12:59 | 52.14640 | 21.58410 | 36515 ft | 470 kts | 19° |
| 2026-05-07 13:00 | 52.17543 | 21.60288 | 36675 ft | 470 kts | 19° |
| 2026-05-07 13:00 | 52.20582 | 21.62255 | 36864 ft | 469 kts | 19° |
| 2026-05-07 13:00 | 52.26508 | 21.66101 | 36917 ft | 471 kts | 20° |
| 2026-05-07 13:01 | 52.32543 | 21.70030 | 36922 ft | 471 kts | 20° |
| 2026-05-07 13:01 | 52.38491 | 21.73917 | 36921 ft | 470 kts | 20° |
| 2026-05-07 13:02 | 52.44530 | 21.77874 | 36922 ft | 470 kts | 20° |
| 2026-05-07 13:02 | 52.50613 | 21.81870 | 36922 ft | 470 kts | 20° |
| 2026-05-07 13:03 | 52.56636 | 21.85840 | 36923 ft | 470 kts | 20° |
| 2026-05-07 13:03 | 52.62707 | 21.89853 | 36924 ft | 470 kts | 20° |
| 2026-05-07 13:04 | 52.68736 | 21.93849 | 36930 ft | 470 kts | 20° |
| 2026-05-07 13:04 | 52.74782 | 21.97868 | 36926 ft | 471 kts | 20° |
| 2026-05-07 13:05 | 52.80853 | 22.01917 | 36915 ft | 471 kts | 20° |
| 2026-05-07 13:05 | 52.86893 | 22.05958 | 36914 ft | 471 kts | 20° |
| 2026-05-07 13:06 | 52.92974 | 22.10040 | 36914 ft | 471 kts | 20° |
| 2026-05-07 13:06 | 52.99007 | 22.14101 | 36910 ft | 470 kts | 20° |
| 2026-05-07 13:07 | 53.05051 | 22.18180 | 36906 ft | 470 kts | 20° |
| 2026-05-07 13:07 | 53.11092 | 22.22270 | 36905 ft | 470 kts | 20° |
| 2026-05-07 13:08 | 53.17128 | 22.26369 | 36913 ft | 471 kts | 20° |
| 2026-05-07 13:08 | 53.22971 | 22.30347 | 36912 ft | 471 kts | 20° |
| 2026-05-07 13:09 | 53.29003 | 22.34469 | 36916 ft | 471 kts | 20° |
| 2026-05-07 13:09 | 53.35067 | 22.38626 | 36912 ft | 471 kts | 20° |
| 2026-05-07 13:10 | 53.41073 | 22.42755 | 36908 ft | 471 kts | 20° |
| 2026-05-07 13:10 | 53.47134 | 22.46935 | 36915 ft | 471 kts | 20° |
| 2026-05-07 13:11 | 53.53169 | 22.51110 | 36917 ft | 471 kts | 20° |
| 2026-05-07 13:11 | 53.59211 | 22.55303 | 36916 ft | 471 kts | 20° |
| 2026-05-07 13:12 | 53.65236 | 22.59496 | 36911 ft | 471 kts | 19° |
| 2026-05-07 13:12 | 53.71292 | 22.63725 | 36917 ft | 471 kts | 19° |
| 2026-05-07 13:13 | 53.77245 | 22.67890 | 36913 ft | 471 kts | 20° |
| 2026-05-07 13:13 | 53.83270 | 22.72122 | 36911 ft | 471 kts | 20° |
| 2026-05-07 13:14 | 53.89304 | 22.76376 | 36904 ft | 472 kts | 20° |
| 2026-05-07 13:14 | 53.95345 | 22.80644 | 36905 ft | 472 kts | 20° |
| 2026-05-07 13:15 | 54.01387 | 22.84930 | 36914 ft | 472 kts | 20° |
| 2026-05-07 13:15 | 54.07418 | 22.89221 | 36908 ft | 472 kts | 20° |
| 2026-05-07 13:16 | 54.13310 | 22.93427 | 36902 ft | 471 kts | 20° |
| 2026-05-07 13:16 | 54.19240 | 22.97674 | 36907 ft | 472 kts | 20° |
| 2026-05-07 13:17 | 54.25268 | 23.02001 | 36908 ft | 472 kts | 20° |
| 2026-05-07 13:17 | 54.31374 | 23.05770 | 36906 ft | 469 kts | 13° |
| 2026-05-07 13:18 | 54.37687 | 23.08263 | 36913 ft | 467 kts | 7° |
| 2026-05-07 13:18 | 54.44089 | 23.10281 | 36916 ft | 466 kts | 6° |
| 2026-05-07 13:19 | 54.50435 | 23.12287 | 36911 ft | 467 kts | 6° |
| 2026-05-07 13:19 | 54.56778 | 23.14325 | 36919 ft | 467 kts | 6° |
| 2026-05-07 13:20 | 54.63150 | 23.16391 | 36915 ft | 466 kts | 6° |
| 2026-05-07 13:20 | 54.69499 | 23.18457 | 36918 ft | 467 kts | 6° |
| 2026-05-07 13:21 | 54.75859 | 23.20536 | 36916 ft | 467 kts | 6° |
| 2026-05-07 13:21 | 54.82240 | 23.22628 | 36932 ft | 467 kts | 6° |
| 2026-05-07 13:22 | 54.88600 | 23.24719 | 36925 ft | 467 kts | 6° |
| 2026-05-07 13:22 | 54.94952 | 23.26814 | 36924 ft | 469 kts | 6° |
| 2026-05-07 13:23 | 55.01331 | 23.28927 | 36920 ft | 469 kts | 6° |
| 2026-05-07 13:23 | 55.07723 | 23.31049 | 36928 ft | 469 kts | 6° |
| 2026-05-07 13:24 | 55.14123 | 23.33179 | 36931 ft | 468 kts | 6° |
| 2026-05-07 13:24 | 55.20306 | 23.35244 | 36927 ft | 468 kts | 6° |
| 2026-05-07 13:25 | 55.26717 | 23.37394 | 36927 ft | 468 kts | 6° |
| 2026-05-07 13:25 | 55.33106 | 23.39546 | 36924 ft | 469 kts | 6° |
| 2026-05-07 13:26 | 55.39472 | 23.41693 | 36928 ft | 469 kts | 6° |
| 2026-05-07 13:26 | 55.45839 | 23.43848 | 36941 ft | 469 kts | 6° |
| 2026-05-07 13:27 | 55.52240 | 23.46024 | 36931 ft | 470 kts | 6° |
| 2026-05-07 13:27 | 55.58667 | 23.48215 | 36938 ft | 470 kts | 6° |
| 2026-05-07 13:28 | 55.65075 | 23.50407 | 36942 ft | 471 kts | 6° |
| 2026-05-07 13:28 | 55.71447 | 23.52592 | 36959 ft | 470 kts | 6° |
| 2026-05-07 13:29 | 55.77853 | 23.54796 | 36957 ft | 470 kts | 6° |
| 2026-05-07 13:29 | 55.84260 | 23.57009 | 36961 ft | 471 kts | 6° |
| 2026-05-07 13:30 | 55.90665 | 23.59230 | 36963 ft | 470 kts | 6° |
| 2026-05-07 13:30 | 55.96376 | 23.61216 | 36961 ft | 470 kts | 6° |
| 2026-05-07 13:31 | 55.98374 | 23.61913 | 36966 ft | 470 kts | 6° |
| 2026-05-07 13:31 | 56.04801 | 23.64157 | 36976 ft | 470 kts | 5° |
| 2026-05-07 13:32 | 56.11091 | 23.66358 | 36977 ft | 471 kts | 6° |
| 2026-05-07 13:32 | 56.17550 | 23.68628 | 36974 ft | 471 kts | 6° |
| 2026-05-07 13:33 | 56.23961 | 23.70891 | 36968 ft | 471 kts | 6° |
| 2026-05-07 13:33 | 56.30377 | 23.73159 | 36966 ft | 471 kts | 6° |
| 2026-05-07 13:34 | 56.39991 | 23.76639 | 36966 ft | 472 kts | 7° |
| 2026-05-07 13:35 | 56.46378 | 23.79203 | 36973 ft | 472 kts | 8° |
| 2026-05-07 13:35 | 56.52716 | 23.81753 | 36973 ft | 471 kts | 8° |
| 2026-05-07 13:36 | 56.59096 | 23.84307 | 36983 ft | 471 kts | 7° |
| 2026-05-07 13:36 | 56.65476 | 23.86691 | 36995 ft | 471 kts | 6° |
| 2026-05-07 13:37 | 56.71868 | 23.89024 | 37005 ft | 471 kts | 6° |
| 2026-05-07 13:37 | 56.78259 | 23.91380 | 37008 ft | 471 kts | 6° |
| 2026-05-07 13:38 | 56.84674 | 23.93761 | 37004 ft | 470 kts | 6° |
| 2026-05-07 13:38 | 56.91059 | 23.96143 | 37006 ft | 470 kts | 6° |
| 2026-05-07 13:39 | 56.97460 | 23.98370 | 37014 ft | 469 kts | 5° |
| 2026-05-07 13:39 | 57.03846 | 24.00467 | 37007 ft | 469 kts | 5° |
| 2026-05-07 13:40 | 57.10268 | 24.02600 | 37013 ft | 469 kts | 5° |
| 2026-05-07 13:40 | 57.16666 | 24.04744 | 37010 ft | 469 kts | 5° |
| 2026-05-07 13:41 | 57.23055 | 24.06896 | 37016 ft | 470 kts | 5° |
| 2026-05-07 13:41 | 57.29465 | 24.09065 | 37012 ft | 470 kts | 5° |
| 2026-05-07 13:41 | 57.32705 | 24.10163 | 36725 ft | 474 kts | 5° |
| 2026-05-07 13:42 | 57.35922 | 24.11255 | 36032 ft | 479 kts | 5° |
| 2026-05-07 13:42 | 57.39206 | 24.12374 | 35527 ft | 484 kts | 5° |
| 2026-05-07 13:42 | 57.42517 | 24.13505 | 35071 ft | 485 kts | 5° |
| 2026-05-07 13:42 | 57.45828 | 24.14638 | 34524 ft | 485 kts | 4° |
| 2026-05-07 13:43 | 57.49082 | 24.15756 | 33666 ft | 485 kts | 4° |
| 2026-05-07 13:43 | 57.52401 | 24.16892 | 32505 ft | 490 kts | 5° |
| 2026-05-07 13:43 | 57.55745 | 24.18037 | 31489 ft | 491 kts | 5° |
| 2026-05-07 13:43 | 57.59069 | 24.19187 | 30942 ft | 483 kts | 5° |
| 2026-05-07 13:44 | 57.62343 | 24.20323 | 30414 ft | 479 kts | 5° |
| 2026-05-07 13:44 | 57.65589 | 24.21449 | 29922 ft | 473 kts | 5° |
| 2026-05-07 13:44 | 57.68790 | 24.22561 | 29479 ft | 467 kts | 5° |
| 2026-05-07 13:44 | 57.71942 | 24.23654 | 29045 ft | 462 kts | 5° |
| 2026-05-07 13:45 | 57.75068 | 24.24740 | 28601 ft | 457 kts | 5° |
| 2026-05-07 13:45 | 57.78173 | 24.25821 | 28157 ft | 452 kts | 4° |
| 2026-05-07 13:45 | 57.81236 | 24.26891 | 27726 ft | 447 kts | 4° |
| 2026-05-07 13:45 | 57.84266 | 24.27948 | 27293 ft | 442 kts | 4° |
| 2026-05-07 13:46 | 57.87233 | 24.28989 | 26857 ft | 438 kts | 4° |
| 2026-05-07 13:46 | 57.90231 | 24.30038 | 26441 ft | 434 kts | 4° |
| 2026-05-07 13:46 | 57.93152 | 24.31045 | 26021 ft | 430 kts | 4° |
| 2026-05-07 13:46 | 57.96083 | 24.32048 | 25589 ft | 426 kts | 4° |
| 2026-05-07 13:47 | 57.98988 | 24.33042 | 25161 ft | 423 kts | 4° |
| 2026-05-07 13:47 | 58.01859 | 24.34025 | 24728 ft | 419 kts | 4° |
| 2026-05-07 13:47 | 58.04672 | 24.34990 | 24300 ft | 416 kts | 4° |
| 2026-05-07 13:47 | 58.07509 | 24.35967 | 23897 ft | 412 kts | 4° |
| 2026-05-07 13:48 | 58.10305 | 24.36930 | 23492 ft | 408 kts | 4° |
| 2026-05-07 13:48 | 58.13107 | 24.37896 | 23088 ft | 405 kts | 4° |
| 2026-05-07 13:48 | 58.15859 | 24.38849 | 22693 ft | 401 kts | 4° |
| 2026-05-07 13:48 | 58.18584 | 24.39791 | 22295 ft | 397 kts | 4° |
| 2026-05-07 13:49 | 58.21269 | 24.40722 | 21891 ft | 394 kts | 4° |
| 2026-05-07 13:49 | 58.23928 | 24.41645 | 21483 ft | 391 kts | 4° |
| 2026-05-07 13:49 | 58.26586 | 24.42571 | 21064 ft | 388 kts | 4° |
| 2026-05-07 13:49 | 58.29233 | 24.43495 | 20657 ft | 384 kts | 4° |
| 2026-05-07 13:50 | 58.31840 | 24.44406 | 20251 ft | 381 kts | 5° |
| 2026-05-07 13:50 | 58.34422 | 24.45309 | 19860 ft | 379 kts | 5° |
| 2026-05-07 13:50 | 58.37009 | 24.46215 | 19447 ft | 376 kts | 5° |
| 2026-05-07 13:50 | 58.39542 | 24.47103 | 19059 ft | 373 kts | 5° |
| 2026-05-07 13:51 | 58.42075 | 24.47993 | 18674 ft | 369 kts | 5° |
| 2026-05-07 13:51 | 58.44590 | 24.48879 | 18288 ft | 366 kts | 5° |
| 2026-05-07 13:51 | 58.47072 | 24.49755 | 17912 ft | 364 kts | 5° |
| 2026-05-07 13:51 | 58.49543 | 24.50626 | 17538 ft | 361 kts | 5° |
| 2026-05-07 13:52 | 58.51988 | 24.51490 | 17160 ft | 359 kts | 5° |
| 2026-05-07 13:52 | 58.54426 | 24.52351 | 16763 ft | 356 kts | 5° |
| 2026-05-07 13:52 | 58.56845 | 24.53207 | 16371 ft | 354 kts | 6° |
| 2026-05-07 13:52 | 58.59251 | 24.54061 | 15966 ft | 351 kts | 6° |
| 2026-05-07 13:53 | 58.61637 | 24.54910 | 15571 ft | 348 kts | 6° |
| 2026-05-07 13:53 | 58.64007 | 24.55753 | 15179 ft | 346 kts | 6° |
| 2026-05-07 13:53 | 58.66352 | 24.56590 | 14785 ft | 343 kts | 6° |
| 2026-05-07 13:53 | 58.68685 | 24.57424 | 14398 ft | 340 kts | 6° |
| 2026-05-07 13:54 | 58.70998 | 24.58167 | 14015 ft | 335 kts | 2° |
| 2026-05-07 13:54 | 58.73294 | 24.58332 | 13634 ft | 330 kts | 354° |
| 2026-05-07 13:54 | 58.75555 | 24.57933 | 13236 ft | 325 kts | 349° |
| 2026-05-07 13:54 | 58.77762 | 24.57370 | 12853 ft | 323 kts | 349° |
| 2026-05-07 13:55 | 58.79979 | 24.56779 | 12462 ft | 320 kts | 349° |
| 2026-05-07 13:55 | 58.82189 | 24.56194 | 12068 ft | 317 kts | 349° |
| 2026-05-07 13:55 | 58.84356 | 24.55629 | 11684 ft | 315 kts | 350° |
| 2026-05-07 13:55 | 58.86492 | 24.55077 | 11316 ft | 312 kts | 350° |
| 2026-05-07 13:56 | 58.88652 | 24.54523 | 10932 ft | 310 kts | 351° |
| 2026-05-07 13:56 | 58.90783 | 24.53976 | 10549 ft | 308 kts | 351° |
| 2026-05-07 13:56 | 58.92886 | 24.53436 | 10195 ft | 304 kts | 351° |
| 2026-05-07 13:56 | 58.94919 | 24.52916 | 10091 ft | 291 kts | 351° |
| 2026-05-07 13:57 | 58.96890 | 24.52412 | 9958 ft | 280 kts | 351° |
| 2026-05-07 13:57 | 58.98802 | 24.51919 | 9589 ft | 278 kts | 351° |
| 2026-05-07 13:57 | 59.00703 | 24.51428 | 9239 ft | 276 kts | 352° |
| 2026-05-07 13:57 | 59.02593 | 24.50939 | 8880 ft | 274 kts | 352° |
| 2026-05-07 13:58 | 59.04480 | 24.50450 | 8530 ft | 272 kts | 352° |
| 2026-05-07 13:58 | 59.06329 | 24.49971 | 8197 ft | 270 kts | 352° |
| 2026-05-07 13:58 | 59.08194 | 24.49489 | 7859 ft | 267 kts | 352° |
| 2026-05-07 13:58 | 59.10018 | 24.49017 | 7515 ft | 265 kts | 353° |
| 2026-05-07 13:59 | 59.11833 | 24.48545 | 7179 ft | 263 kts | 353° |
| 2026-05-07 13:59 | 59.13592 | 24.48087 | 6862 ft | 261 kts | 353° |
| 2026-05-07 13:59 | 59.15272 | 24.47650 | 6559 ft | 260 kts | 353° |
| 2026-05-07 13:59 | 59.17063 | 24.47183 | 6237 ft | 257 kts | 353° |
| 2026-05-07 14:00 | 59.18776 | 24.46738 | 5935 ft | 255 kts | 353° |
| 2026-05-07 14:00 | 59.20540 | 24.46279 | 5626 ft | 253 kts | 353° |
| 2026-05-07 14:00 | 59.22252 | 24.45833 | 5324 ft | 251 kts | 353° |
| 2026-05-07 14:00 | 59.23980 | 24.45382 | 5013 ft | 253 kts | 353° |
| 2026-05-07 14:01 | 59.25742 | 24.44923 | 4695 ft | 257 kts | 353° |
| 2026-05-07 14:01 | 59.27493 | 24.44464 | 4381 ft | 256 kts | 353° |
| 2026-05-07 14:01 | 59.29266 | 24.44000 | 4061 ft | 255 kts | 353° |
| 2026-05-07 14:01 | 59.31010 | 24.43541 | 3849 ft | 250 kts | 353° |
| 2026-05-07 14:02 | 59.32692 | 24.43124 | 3771 ft | 238 kts | 356° |
| 2026-05-07 14:02 | 59.34290 | 24.42986 | 3582 ft | 230 kts | 0° |
| 2026-05-07 14:02 | 59.35843 | 24.42968 | 3532 ft | 216 kts | 1° |
| 2026-05-07 14:02 | 59.37306 | 24.42963 | 3444 ft | 205 kts | 1° |
| 2026-05-07 14:03 | 59.38703 | 24.42956 | 3345 ft | 198 kts | 1° |
| 2026-05-07 14:03 | 59.40039 | 24.43433 | 3339 ft | 197 kts | 26° |
| 2026-05-07 14:03 | 59.40971 | 24.45287 | 3055 ft | 192 kts | 61° |
| 2026-05-07 14:03 | 59.41304 | 24.47785 | 2765 ft | 188 kts | 81° |
| 2026-05-07 14:04 | 59.41398 | 24.50292 | 2523 ft | 180 kts | 84° |
| 2026-05-07 14:04 | 59.41443 | 24.52690 | 2476 ft | 177 kts | 86° |
| 2026-05-07 14:04 | 59.41454 | 24.55123 | 2505 ft | 178 kts | 87° |
| 2026-05-07 14:04 | 59.41446 | 24.57552 | 2471 ft | 176 kts | 87° |
| 2026-05-07 14:05 | 59.41431 | 24.59871 | 2272 ft | 166 kts | 88° |
| 2026-05-07 14:05 | 59.41416 | 24.62047 | 2028 ft | 153 kts | 88° |
| 2026-05-07 14:05 | 59.41404 | 24.64042 | 1851 ft | 139 kts | 87° |
| 2026-05-07 14:05 | 59.41395 | 24.65881 | 1659 ft | 134 kts | 88° |
| 2026-05-07 14:06 | 59.41388 | 24.67589 | 1504 ft | 133 kts | 88° |
| 2026-05-07 14:06 | 59.41380 | 24.69407 | 1332 ft | 133 kts | 88° |
| 2026-05-07 14:06 | 59.41374 | 24.71212 | 1154 ft | 133 kts | 88° |
| 2026-05-07 14:06 | 59.41365 | 24.73020 | 982 ft | 133 kts | 88° |
| 2026-05-07 14:07 | 59.41348 | 24.74829 | 795 ft | 133 kts | 88° |
| 2026-05-07 14:07 | 59.41339 | 24.76642 | 609 ft | 132 kts | 88° |
| 2026-05-07 14:07 | 59.41339 | 24.78442 | 429 ft | 132 kts | 88° |
| 2026-05-07 14:07 | 59.41330 | 24.80253 | 245 ft | 131 kts | 88° |
| 2026-05-07 14:08 | 59.41328 | 24.82016 | 146 ft | 115 kts | 89° |
| 2026-05-07 14:08 | 59.41315 | 24.83281 | 147 ft | 78 kts | 89° |
| 2026-05-07 14:08 | 59.41325 | 24.84178 | 149 ft | 50 kts | 90° |
| 2026-05-07 14:08 | 59.41324 | 24.84700 | 149 ft | 25 kts | 90° |
| 2026-05-07 14:09 | 59.41336 | 24.84967 | 150 ft | 16 kts | 56° |
| 2026-05-07 14:09 | 59.41432 | 24.85007 | 150 ft | 14 kts | 0° |
| 2026-05-07 14:09 | 59.41494 | 24.84919 | 150 ft | 12 kts | 278° |
| 2026-05-07 14:09 | 59.41496 | 24.84745 | 150 ft | 13 kts | 270° |
| 2026-05-07 14:10 | 59.41497 | 24.84540 | 150 ft | 17 kts | 271° |
| 2026-05-07 14:10 | 59.41497 | 24.84246 | 149 ft | 26 kts | 271° |
| 2026-05-07 14:10 | 59.41499 | 24.83916 | 149 ft | 24 kts | 270° |
| 2026-05-07 14:10 | 59.41500 | 24.83592 | 148 ft | 23 kts | 270° |
| 2026-05-07 14:11 | 59.41501 | 24.83277 | 148 ft | 23 kts | 270° |
| 2026-05-07 14:11 | 59.41502 | 24.82959 | 147 ft | 23 kts | 270° |
| 2026-05-07 14:11 | 59.41502 | 24.82634 | 147 ft | 23 kts | 271° |
| 2026-05-07 14:11 | 59.41504 | 24.82317 | 146 ft | 23 kts | 271° |
| 2026-05-07 14:12 | 59.41504 | 24.81997 | 147 ft | 23 kts | 271° |
| 2026-05-07 14:12 | 59.41505 | 24.81682 | 148 ft | 22 kts | 270° |
| 2026-05-07 14:12 | 59.41505 | 24.81388 | 151 ft | 20 kts | 270° |
| 2026-05-07 14:12 | 59.41506 | 24.81100 | 153 ft | 21 kts | 270° |
| 2026-05-07 14:13 | 59.41507 | 24.80798 | 154 ft | 21 kts | 271° |
| 2026-05-07 14:13 | 59.41515 | 24.80526 | 156 ft | 14 kts | 280° |
| 2026-05-07 14:13 | 59.41528 | 24.80335 | 156 ft | 12 kts | 272° |
| 2026-05-07 14:13 | 59.41528 | 24.80204 | 156 ft | 6 kts | 270° |
| 2026-05-07 14:14 | 59.41530 | 24.80156 | 156 ft | 2 kts | 295° |
| 2026-05-07 14:14 | 59.41548 | 24.80139 | 156 ft | 2 kts | 4° |
| 2026-05-07 14:14 | 59.41566 | 24.80139 | 156 ft | 2 kts | 0° |
| 2026-05-07 14:14 | 59.41578 | 24.80139 | 156 ft | 1 kts | 0° |
| 2026-05-07 14:15 | 59.41582 | 24.80140 | 156 ft | 0 kts | 0° |